createdAt,value
2017-05-27T00:00:24.726Z,17.36
2017-05-27T00:01:26.191Z,17.38
2017-05-27T00:02:27.654Z,17.40
2017-05-27T00:03:29.112Z,17.36
2017-05-27T00:04:30.568Z,17.36
2017-05-27T00:05:32.027Z,17.35
2017-05-27T00:06:33.491Z,17.33
2017-05-27T00:07:34.952Z,17.46
2017-05-27T00:08:36.410Z,17.50
2017-05-27T00:09:37.868Z,17.48
2017-05-27T00:10:39.321Z,17.40
2017-05-27T00:11:40.820Z,17.46
2017-05-27T00:12:42.286Z,17.46
2017-05-27T00:13:43.747Z,17.38
2017-05-27T00:14:45.209Z,17.47
2017-05-27T00:15:46.658Z,17.46
2017-05-27T00:16:48.125Z,17.40
2017-05-27T00:17:49.583Z,17.40
2017-05-27T00:18:51.037Z,17.36
2017-05-27T00:19:52.504Z,17.44
2017-05-27T00:20:53.954Z,17.35
2017-05-27T00:21:55.421Z,17.32
2017-05-27T00:22:56.909Z,17.35
2017-05-27T00:23:58.361Z,17.36
2017-05-27T00:24:59.824Z,17.44
2017-05-27T00:26:01.953Z,17.35
2017-05-27T00:27:03.418Z,17.35
2017-05-27T00:28:04.876Z,17.30
2017-05-27T00:29:06.356Z,17.26
2017-05-27T00:30:07.808Z,17.38
2017-05-27T00:31:09.265Z,17.32
2017-05-27T00:32:10.722Z,17.29
2017-05-27T00:33:12.177Z,17.26
2017-05-27T00:34:13.645Z,17.18
2017-05-27T00:35:15.101Z,17.26
2017-05-27T00:36:16.559Z,17.18
2017-05-27T00:37:18.023Z,17.15
2017-05-27T00:38:19.489Z,17.11
2017-05-27T00:39:20.939Z,17.11
2017-05-27T00:40:22.399Z,17.14
2017-05-27T00:41:23.851Z,17.10
2017-05-27T00:42:25.308Z,17.06
2017-05-27T00:43:26.762Z,17.04
2017-05-27T00:44:28.225Z,17.07
2017-05-27T00:45:29.686Z,17.11
2017-05-27T00:46:31.145Z,17.10
2017-05-27T00:47:32.601Z,17.13
2017-05-27T00:48:34.059Z,17.15
2017-05-27T00:49:35.535Z,17.11
2017-05-27T00:50:36.997Z,17.10
2017-05-27T00:51:38.459Z,17.15
2017-05-27T00:52:39.919Z,17.10
2017-05-27T00:53:41.373Z,17.00
2017-05-27T00:54:42.826Z,16.96
2017-05-27T00:55:44.279Z,16.93
2017-05-27T00:56:45.773Z,16.99
2017-05-27T00:57:47.232Z,16.92
2017-05-27T00:58:48.690Z,17.04
2017-05-27T00:59:50.191Z,16.93
2017-05-27T01:00:51.600Z,16.89
2017-05-27T01:01:53.055Z,16.74
2017-05-27T01:02:54.525Z,16.63
2017-05-27T01:03:55.996Z,16.65
2017-05-27T01:04:57.452Z,16.59
2017-05-27T01:05:58.917Z,16.48
2017-05-27T01:07:00.368Z,16.42
2017-05-27T01:08:01.861Z,16.50
2017-05-27T01:09:03.322Z,16.56
2017-05-27T01:10:04.781Z,16.62
2017-05-27T01:11:06.245Z,16.56
2017-05-27T01:12:07.713Z,16.63
2017-05-27T01:13:09.181Z,16.56
2017-05-27T01:14:10.639Z,16.58
2017-05-27T01:15:12.096Z,16.59
2017-05-27T01:16:13.565Z,16.73
2017-05-27T01:17:15.023Z,16.55
2017-05-27T01:18:16.486Z,16.65
2017-05-27T01:19:17.943Z,16.58
2017-05-27T01:20:19.400Z,16.65
2017-05-27T01:21:20.880Z,16.70
2017-05-27T01:22:22.330Z,16.62
2017-05-27T01:23:23.790Z,16.58
2017-05-27T01:24:25.246Z,16.45
2017-05-27T01:25:26.708Z,16.60
2017-05-27T01:26:28.166Z,16.49
2017-05-27T01:27:29.626Z,16.45
2017-05-27T01:28:31.081Z,16.42
2017-05-27T01:29:32.538Z,16.52
2017-05-27T01:30:33.995Z,16.53
2017-05-27T01:31:35.452Z,16.58
2017-05-27T01:32:36.905Z,16.59
2017-05-27T01:33:38.369Z,16.68
2017-05-27T01:34:39.818Z,16.71
2017-05-27T01:35:41.279Z,16.74
2017-05-27T01:36:42.744Z,16.74
2017-05-27T01:37:44.201Z,16.74
2017-05-27T01:38:45.661Z,16.75
2017-05-27T01:39:47.113Z,16.67
2017-05-27T01:40:48.578Z,16.73
2017-05-27T01:41:50.040Z,16.78
2017-05-27T01:42:51.491Z,16.73
2017-05-27T01:43:52.940Z,16.75
2017-05-27T01:44:54.399Z,16.77
2017-05-27T01:45:55.856Z,16.77
2017-05-27T01:46:57.326Z,16.70
2017-05-27T01:47:58.790Z,16.77
2017-05-27T01:49:00.242Z,16.80
2017-05-27T01:50:01.714Z,16.70
2017-05-27T01:51:03.180Z,16.63
2017-05-27T01:52:04.632Z,16.55
2017-05-27T01:53:06.091Z,16.49
2017-05-27T01:54:07.544Z,16.41
2017-05-27T01:55:09.002Z,16.40
2017-05-27T01:56:10.463Z,16.45
2017-05-27T01:57:11.915Z,16.44
2017-05-27T01:58:13.371Z,16.56
2017-05-27T01:59:14.826Z,16.68
2017-05-27T02:00:16.284Z,16.63
2017-05-27T02:01:17.735Z,16.59
2017-05-27T02:02:19.194Z,16.48
2017-05-27T02:03:20.648Z,16.42
2017-05-27T02:04:22.104Z,16.53
2017-05-27T02:05:23.566Z,16.49
2017-05-27T02:06:25.242Z,16.41
2017-05-27T02:07:26.692Z,16.41
2017-05-27T02:08:28.155Z,16.34
2017-05-27T02:09:29.620Z,16.42
2017-05-27T02:10:31.080Z,16.49
2017-05-27T02:11:32.542Z,16.44
2017-05-27T02:12:33.988Z,16.42
2017-05-27T02:13:35.447Z,16.42
2017-05-27T02:14:36.901Z,16.48
2017-05-27T02:15:38.360Z,16.52
2017-05-27T02:16:39.820Z,16.38
2017-05-27T02:17:41.282Z,16.22
2017-05-27T02:18:42.735Z,16.33
2017-05-27T02:19:44.193Z,16.22
2017-05-27T02:20:45.649Z,16.26
2017-05-27T02:21:47.104Z,16.30
2017-05-27T02:22:48.554Z,16.25
2017-05-27T02:23:50.016Z,16.22
2017-05-27T02:24:51.470Z,16.30
2017-05-27T02:25:52.925Z,16.30
2017-05-27T02:26:54.389Z,16.35
2017-05-27T02:27:55.866Z,16.27
2017-05-27T02:28:57.317Z,16.33
2017-05-27T02:29:58.774Z,16.25
2017-05-27T02:31:00.232Z,16.23
2017-05-27T02:32:01.689Z,16.15
2017-05-27T02:33:03.140Z,16.20
2017-05-27T02:34:04.597Z,16.04
2017-05-27T02:35:06.050Z,16.04
2017-05-27T02:36:07.515Z,15.99
2017-05-27T02:37:08.970Z,16.03
2017-05-27T02:38:10.424Z,15.96
2017-05-27T02:39:11.883Z,15.94
2017-05-27T02:40:13.336Z,15.88
2017-05-27T02:41:14.793Z,15.92
2017-05-27T02:42:16.257Z,15.94
2017-05-27T02:43:17.713Z,15.96
2017-05-27T02:44:19.167Z,15.89
2017-05-27T02:45:20.628Z,15.94
2017-05-27T02:46:22.090Z,15.93
2017-05-27T02:47:23.542Z,15.85
2017-05-27T02:48:25.002Z,15.74
2017-05-27T02:49:26.457Z,15.72
2017-05-27T02:50:27.914Z,15.86
2017-05-27T02:51:29.375Z,15.79
2017-05-27T02:52:30.841Z,15.63
2017-05-27T02:53:32.298Z,15.57
2017-05-27T02:54:33.755Z,15.52
2017-05-27T02:55:35.208Z,15.49
2017-05-27T02:56:36.666Z,15.38
2017-05-27T02:57:38.124Z,15.36
2017-05-27T02:58:39.581Z,15.36
2017-05-27T02:59:41.036Z,15.38
2017-05-27T03:00:42.501Z,15.43
2017-05-27T03:01:43.956Z,15.48
2017-05-27T03:02:45.406Z,15.52
2017-05-27T03:03:46.865Z,15.54
2017-05-27T03:04:48.318Z,15.52
2017-05-27T03:05:49.771Z,15.54
2017-05-27T03:06:51.246Z,15.49
2017-05-27T03:07:52.703Z,15.38
2017-05-27T03:08:54.167Z,15.46
2017-05-27T03:09:55.620Z,15.41
2017-05-27T03:10:57.082Z,15.31
2017-05-27T03:11:58.535Z,15.33
2017-05-27T03:12:59.994Z,15.41
2017-05-27T03:14:01.473Z,15.42
2017-05-27T03:15:02.933Z,15.43
2017-05-27T03:16:04.394Z,15.43
2017-05-27T03:17:05.849Z,15.42
2017-05-27T03:18:07.304Z,15.28
2017-05-27T03:19:08.760Z,15.33
2017-05-27T03:20:10.221Z,15.42
2017-05-27T03:21:11.684Z,15.23
2017-05-27T03:22:13.151Z,15.52
2017-05-27T03:23:14.619Z,15.63
2017-05-27T03:24:16.076Z,15.59
2017-05-27T03:25:17.528Z,15.60
2017-05-27T03:26:18.998Z,15.52
2017-05-27T03:27:20.456Z,15.39
2017-05-27T03:28:21.917Z,15.36
2017-05-27T03:29:23.376Z,15.33
2017-05-27T03:30:24.849Z,15.45
2017-05-27T03:31:26.301Z,15.46
2017-05-27T03:32:27.759Z,15.51
2017-05-27T03:33:29.218Z,15.38
2017-05-27T03:34:30.673Z,15.38
2017-05-27T03:35:32.134Z,15.36
2017-05-27T03:36:33.600Z,15.42
2017-05-27T03:37:35.055Z,15.51
2017-05-27T03:38:36.512Z,15.49
2017-05-27T03:39:37.967Z,15.59
2017-05-27T03:40:39.423Z,15.59
2017-05-27T03:41:40.890Z,15.52
2017-05-27T03:42:42.347Z,15.54
2017-05-27T03:43:43.813Z,15.57
2017-05-27T03:44:45.271Z,15.49
2017-05-27T03:45:46.731Z,15.57
2017-05-27T03:46:48.192Z,15.52
2017-05-27T03:47:49.660Z,15.43
2017-05-27T03:48:51.119Z,15.51
2017-05-27T03:49:52.583Z,15.42
2017-05-27T03:50:54.037Z,15.49
2017-05-27T03:51:55.494Z,15.52
2017-05-27T03:52:56.955Z,15.39
2017-05-27T03:53:58.410Z,15.45
2017-05-27T03:54:59.864Z,15.46
2017-05-27T03:56:02.106Z,15.45
2017-05-27T03:57:03.567Z,15.41
2017-05-27T03:58:05.035Z,15.52
2017-05-27T03:59:06.500Z,15.59
2017-05-27T04:00:07.957Z,15.52
2017-05-27T04:01:09.422Z,15.52
2017-05-27T04:02:10.874Z,15.54
2017-05-27T04:03:12.336Z,15.52
2017-05-27T04:04:13.793Z,15.63
2017-05-27T04:05:15.257Z,15.57
2017-05-27T04:06:16.760Z,15.45
2017-05-27T04:07:18.217Z,15.51
2017-05-27T04:08:19.702Z,15.46
2017-05-27T04:09:21.162Z,15.57
2017-05-27T04:10:22.623Z,15.49
2017-05-27T04:11:24.081Z,15.56
2017-05-27T04:12:25.549Z,15.59
2017-05-27T04:13:27.005Z,15.57
2017-05-27T04:14:28.477Z,15.74
2017-05-27T04:15:29.936Z,15.70
2017-05-27T04:16:31.408Z,15.68
2017-05-27T04:17:32.873Z,15.66
2017-05-27T04:18:34.340Z,15.67
2017-05-27T04:19:35.809Z,15.74
2017-05-27T04:20:37.267Z,15.79
2017-05-27T04:21:38.734Z,15.76
2017-05-27T04:22:40.202Z,15.96
2017-05-27T04:23:41.657Z,16.01
2017-05-27T04:24:43.128Z,16.16
2017-05-27T04:25:44.580Z,16.18
2017-05-27T04:26:46.046Z,16.27
2017-05-27T04:27:47.503Z,16.65
2017-05-27T04:28:48.961Z,16.85
2017-05-27T04:29:50.420Z,17.17
2017-05-27T04:30:51.880Z,17.35
2017-05-27T04:31:53.341Z,17.62
2017-05-27T04:32:54.797Z,17.91
2017-05-27T04:33:56.257Z,17.92
2017-05-27T04:34:57.718Z,18.24
2017-05-27T04:35:59.179Z,18.52
2017-05-27T04:37:00.639Z,18.61
2017-05-27T04:38:02.109Z,18.97
2017-05-27T04:39:03.567Z,18.99
2017-05-27T04:40:05.026Z,19.06
2017-05-27T04:41:06.489Z,19.31
2017-05-27T04:42:07.949Z,19.40
2017-05-27T04:43:09.408Z,19.40
2017-05-27T04:44:10.882Z,19.38
2017-05-27T04:45:12.346Z,19.36
2017-05-27T04:46:13.812Z,19.54
2017-05-27T04:47:15.275Z,19.58
2017-05-27T04:48:16.738Z,19.87
2017-05-27T04:49:18.205Z,19.90
2017-05-27T04:50:19.687Z,20.09
2017-05-27T04:51:21.131Z,19.91
2017-05-27T04:52:22.594Z,20.31
2017-05-27T04:53:24.064Z,20.58
2017-05-27T04:54:25.522Z,20.89
2017-05-27T04:55:26.999Z,21.09
2017-05-27T04:56:28.463Z,21.13
2017-05-27T04:57:29.952Z,20.68
2017-05-27T04:58:31.416Z,20.30
2017-05-27T04:59:32.884Z,19.75
2017-05-27T05:00:34.343Z,19.23
2017-05-27T05:01:35.815Z,18.94
2017-05-27T05:02:37.276Z,18.70
2017-05-27T05:03:38.741Z,18.72
2017-05-27T05:04:40.206Z,18.52
2017-05-27T05:05:41.672Z,18.25
2017-05-27T05:06:43.150Z,18.42
2017-05-27T05:07:44.621Z,18.25
2017-05-27T05:08:46.077Z,18.13
2017-05-27T05:09:47.554Z,18.07
2017-05-27T05:10:49.019Z,18.18
2017-05-27T05:11:50.482Z,18.18
2017-05-27T05:12:51.963Z,18.07
2017-05-27T05:13:53.425Z,18.06
2017-05-27T05:14:54.886Z,18.00
2017-05-27T05:15:56.349Z,17.99
2017-05-27T05:16:57.823Z,18.06
2017-05-27T05:17:59.290Z,17.94
2017-05-27T05:19:00.758Z,18.02
2017-05-27T05:20:02.219Z,18.00
2017-05-27T05:21:03.683Z,18.00
2017-05-27T05:22:05.158Z,18.06
2017-05-27T05:23:06.625Z,18.00
2017-05-27T05:24:08.086Z,18.06
2017-05-27T05:25:09.551Z,18.04
2017-05-27T05:26:11.077Z,18.04
2017-05-27T05:27:12.547Z,18.15
2017-05-27T05:28:14.010Z,18.15
2017-05-27T05:29:15.486Z,18.07
2017-05-27T05:30:16.965Z,18.15
2017-05-27T05:31:18.427Z,18.12
2017-05-27T05:32:19.891Z,18.15
2017-05-27T05:33:21.348Z,18.25
2017-05-27T05:34:22.813Z,18.31
2017-05-27T05:35:24.281Z,18.27
2017-05-27T05:36:25.746Z,18.29
2017-05-27T05:37:27.213Z,18.39
2017-05-27T05:38:28.678Z,18.37
2017-05-27T05:39:30.139Z,18.42
2017-05-27T05:40:31.597Z,18.37
2017-05-27T05:41:33.064Z,18.49
2017-05-27T05:42:34.527Z,18.50
2017-05-27T05:43:35.992Z,18.54
2017-05-27T05:44:37.463Z,18.49
2017-05-27T05:45:38.927Z,18.58
2017-05-27T05:46:40.393Z,18.64
2017-05-27T05:47:41.853Z,18.72
2017-05-27T05:48:43.314Z,18.65
2017-05-27T05:49:44.784Z,18.80
2017-05-27T05:50:46.252Z,18.79
2017-05-27T05:51:47.730Z,18.94
2017-05-27T05:52:49.198Z,19.06
2017-05-27T05:53:50.663Z,19.02
2017-05-27T05:54:52.120Z,19.10
2017-05-27T05:55:53.582Z,19.08
2017-05-27T05:56:55.045Z,19.11
2017-05-27T05:57:56.509Z,19.18
2017-05-27T05:58:57.986Z,19.18
2017-05-27T05:59:59.451Z,19.32
2017-05-27T06:01:00.915Z,19.32
2017-05-27T06:02:02.375Z,19.31
2017-05-27T06:03:03.850Z,19.36
2017-05-27T06:04:05.306Z,19.46
2017-05-27T06:05:06.784Z,19.40
2017-05-27T06:06:08.252Z,19.48
2017-05-27T06:07:09.716Z,19.60
2017-05-27T06:08:11.178Z,19.60
2017-05-27T06:09:12.638Z,19.63
2017-05-27T06:10:14.102Z,19.66
2017-05-27T06:11:15.566Z,19.68
2017-05-27T06:12:17.025Z,19.88
2017-05-27T06:13:18.490Z,19.87
2017-05-27T06:14:19.951Z,19.86
2017-05-27T06:15:21.436Z,19.76
2017-05-27T06:16:22.901Z,19.86
2017-05-27T06:17:24.367Z,20.02
2017-05-27T06:18:25.830Z,20.12
2017-05-27T06:19:27.290Z,19.97
2017-05-27T06:20:28.755Z,20.08
2017-05-27T06:21:30.221Z,20.12
2017-05-27T06:22:31.680Z,20.24
2017-05-27T06:23:33.143Z,20.08
2017-05-27T06:24:34.599Z,20.23
2017-05-27T06:25:36.061Z,20.42
2017-05-27T06:26:37.527Z,20.42
2017-05-27T06:27:38.993Z,20.46
2017-05-27T06:28:40.454Z,20.43
2017-05-27T06:29:41.915Z,20.54
2017-05-27T06:30:43.379Z,20.65
2017-05-27T06:31:44.842Z,20.72
2017-05-27T06:32:46.306Z,20.59
2017-05-27T06:33:47.767Z,20.76
2017-05-27T06:34:49.234Z,20.62
2017-05-27T06:35:50.698Z,20.76
2017-05-27T06:36:52.178Z,20.86
2017-05-27T06:37:53.640Z,20.95
2017-05-27T06:38:55.103Z,20.96
2017-05-27T06:39:56.570Z,21.05
2017-05-27T06:40:58.037Z,20.90
2017-05-27T06:41:59.500Z,20.86
2017-05-27T06:43:00.969Z,20.98
2017-05-27T06:44:02.427Z,21.04
2017-05-27T06:45:03.898Z,20.95
2017-05-27T06:46:05.383Z,21.23
2017-05-27T06:47:06.849Z,21.21
2017-05-27T06:48:08.313Z,21.30
2017-05-27T06:49:09.785Z,21.23
2017-05-27T06:50:11.260Z,21.26
2017-05-27T06:51:12.722Z,21.27
2017-05-27T06:52:14.185Z,21.41
2017-05-27T06:53:15.651Z,21.50
2017-05-27T06:54:17.125Z,21.59
2017-05-27T06:55:18.588Z,21.61
2017-05-27T06:56:20.065Z,21.71
2017-05-27T06:57:21.533Z,21.69
2017-05-27T06:58:23.014Z,21.66
2017-05-27T06:59:24.483Z,21.97
2017-05-27T07:00:25.977Z,22.06
2017-05-27T07:01:27.433Z,22.06
2017-05-27T07:02:28.902Z,21.92
2017-05-27T07:03:30.380Z,22.09
2017-05-27T07:04:31.847Z,22.16
2017-05-27T07:05:33.320Z,22.28
2017-05-27T07:06:34.788Z,22.49
2017-05-27T07:07:36.310Z,22.56
2017-05-27T07:08:37.788Z,22.59
2017-05-27T07:09:39.265Z,22.37
2017-05-27T07:10:40.740Z,22.38
2017-05-27T07:11:42.209Z,22.49
2017-05-27T07:12:43.676Z,22.52
2017-05-27T07:13:45.143Z,22.60
2017-05-27T07:14:46.616Z,22.60
2017-05-27T07:15:48.079Z,22.72
2017-05-27T07:16:49.554Z,22.60
2017-05-27T07:17:51.050Z,22.74
2017-05-27T07:18:52.526Z,22.78
2017-05-27T07:19:53.992Z,22.78
2017-05-27T07:20:55.465Z,22.92
2017-05-27T07:21:56.935Z,23.17
2017-05-27T07:22:58.403Z,23.43
2017-05-27T07:23:59.873Z,23.49
2017-05-27T07:25:01.351Z,23.53
2017-05-27T07:26:03.764Z,23.61
2017-05-27T07:27:05.236Z,23.85
2017-05-27T07:28:06.710Z,23.87
2017-05-27T07:29:08.200Z,23.76
2017-05-27T07:30:09.668Z,23.87
2017-05-27T07:31:11.147Z,23.64
2017-05-27T07:32:12.611Z,23.52
2017-05-27T07:33:14.091Z,23.34
2017-05-27T07:34:15.569Z,23.24
2017-05-27T07:35:17.041Z,23.52
2017-05-27T07:36:18.517Z,23.70
2017-05-27T07:37:19.988Z,23.89
2017-05-27T07:38:21.466Z,24.00
2017-05-27T07:39:22.948Z,24.68
2017-05-27T07:40:24.442Z,25.07
2017-05-27T07:41:25.913Z,25.12
2017-05-27T07:42:27.387Z,24.88
2017-05-27T07:43:28.863Z,24.75
2017-05-27T07:44:30.372Z,25.13
2017-05-27T07:45:31.855Z,25.75
2017-05-27T07:46:33.327Z,25.57
2017-05-27T07:47:34.799Z,25.42
2017-05-27T07:48:36.285Z,25.31
2017-05-27T07:49:37.761Z,25.52
2017-05-27T07:50:39.288Z,25.57
2017-05-27T07:51:40.764Z,25.77
2017-05-27T07:52:42.241Z,25.84
2017-05-27T07:53:43.722Z,26.02
2017-05-27T07:54:45.215Z,25.52
2017-05-27T07:55:46.700Z,25.97
2017-05-27T07:56:48.185Z,26.12
2017-05-27T07:57:49.667Z,25.80
2017-05-27T07:58:51.141Z,26.01
2017-05-27T07:59:52.623Z,25.74
2017-05-27T08:00:54.099Z,26.40
2017-05-27T08:01:55.582Z,26.08
2017-05-27T08:02:57.054Z,26.25
2017-05-27T08:03:58.585Z,26.42
2017-05-27T08:05:00.062Z,26.84
2017-05-27T08:06:03.149Z,26.35
2017-05-27T08:07:04.634Z,26.67
2017-05-27T08:08:06.125Z,27.58
2017-05-27T08:09:07.601Z,27.94
2017-05-27T08:10:09.078Z,28.84
2017-05-27T08:11:10.555Z,29.13
2017-05-27T08:12:12.032Z,28.87
2017-05-27T08:13:13.520Z,28.75
2017-05-27T08:14:15.022Z,28.87
2017-05-27T08:15:16.496Z,27.66
2017-05-27T08:16:17.989Z,27.05
2017-05-27T08:17:19.481Z,27.57
2017-05-27T08:18:20.956Z,28.33
2017-05-27T08:19:22.443Z,28.47
2017-05-27T08:20:23.922Z,29.01
2017-05-27T08:21:25.406Z,28.40
2017-05-27T08:22:26.883Z,28.43
2017-05-27T08:23:28.366Z,28.50
2017-05-27T08:24:29.859Z,28.38
2017-05-27T08:25:31.337Z,28.65
2017-05-27T08:26:32.814Z,28.82
2017-05-27T08:27:34.293Z,28.80
2017-05-27T08:28:35.782Z,29.53
2017-05-27T08:29:37.259Z,30.02
2017-05-27T08:30:38.739Z,29.70
2017-05-27T08:31:40.220Z,29.89
2017-05-27T08:32:41.698Z,29.33
2017-05-27T08:33:43.178Z,29.33
2017-05-27T08:34:44.667Z,29.55
2017-05-27T08:35:46.143Z,30.09
2017-05-27T08:36:47.635Z,30.03
2017-05-27T08:37:49.117Z,30.34
2017-05-27T08:38:50.605Z,29.66
2017-05-27T08:39:52.078Z,29.89
2017-05-27T08:40:53.568Z,30.19
2017-05-27T08:41:55.050Z,30.33
2017-05-27T08:42:56.531Z,30.07
2017-05-27T08:43:58.024Z,29.78
2017-05-27T08:44:59.506Z,29.50
2017-05-27T08:46:01.977Z,29.15
2017-05-27T08:47:03.461Z,30.03
2017-05-27T08:48:04.937Z,31.40
2017-05-27T08:49:06.423Z,31.96
2017-05-27T08:50:07.921Z,31.27
2017-05-27T08:51:09.399Z,29.93
2017-05-27T08:52:10.885Z,29.71
2017-05-27T08:53:12.365Z,30.26
2017-05-27T08:54:13.900Z,30.67
2017-05-27T08:55:15.380Z,30.43
2017-05-27T08:56:16.872Z,30.33
2017-05-27T08:57:18.349Z,30.15
2017-05-27T08:58:19.841Z,29.90
2017-05-27T08:59:21.329Z,29.79
2017-05-27T09:00:22.813Z,30.11
2017-05-27T09:01:24.304Z,30.34
2017-05-27T09:02:25.986Z,30.86
2017-05-27T09:03:27.463Z,30.37
2017-05-27T09:04:28.954Z,29.18
2017-05-27T09:05:30.456Z,29.29
2017-05-27T09:06:31.939Z,29.56
2017-05-27T09:07:33.418Z,29.77
2017-05-27T09:08:34.898Z,30.05
2017-05-27T09:09:36.389Z,31.15
2017-05-27T09:10:37.874Z,30.45
2017-05-27T09:11:39.370Z,30.69
2017-05-27T09:12:40.881Z,31.28
2017-05-27T09:13:42.362Z,31.61
2017-05-27T09:14:43.841Z,31.57
2017-05-27T09:15:45.340Z,29.99
2017-05-27T09:16:46.840Z,30.36
2017-05-27T09:17:48.336Z,29.92
2017-05-27T09:18:49.827Z,31.17
2017-05-27T09:19:51.324Z,31.55
2017-05-27T09:20:52.844Z,31.84
2017-05-27T09:21:54.357Z,32.14
2017-05-27T09:22:55.840Z,32.99
2017-05-27T09:23:57.323Z,32.13
2017-05-27T09:24:58.810Z,32.57
2017-05-27T09:26:01.575Z,32.42
2017-05-27T09:27:02.396Z,32.79
2017-05-27T09:28:03.890Z,32.99
2017-05-27T09:29:05.371Z,33.52
2017-05-27T09:30:06.849Z,33.60
2017-05-27T09:31:08.331Z,33.43
2017-05-27T09:32:09.820Z,33.27
2017-05-27T09:33:11.309Z,33.04
2017-05-27T09:34:12.794Z,33.46
2017-05-27T09:35:14.282Z,32.32
2017-05-27T09:36:15.777Z,31.99
2017-05-27T09:37:17.274Z,33.43
2017-05-27T09:38:18.758Z,33.52
2017-05-27T09:39:20.245Z,33.79
2017-05-27T09:40:21.728Z,33.83
2017-05-27T09:41:23.219Z,34.26
2017-05-27T09:42:24.702Z,33.26
2017-05-27T09:43:26.191Z,33.01
2017-05-27T09:44:27.671Z,33.41
2017-05-27T09:45:29.155Z,32.58
2017-05-27T09:46:30.641Z,33.90
2017-05-27T09:47:32.130Z,32.70
2017-05-27T09:48:33.615Z,34.31
2017-05-27T09:49:35.101Z,33.74
2017-05-27T09:50:36.585Z,33.45
2017-05-27T09:51:38.067Z,32.59
2017-05-27T09:52:39.549Z,33.14
2017-05-27T09:53:41.032Z,32.58
2017-05-27T09:54:42.517Z,33.03
2017-05-27T09:55:44.001Z,33.17
2017-05-27T09:56:45.504Z,33.30
2017-05-27T09:57:46.989Z,33.42
2017-05-27T09:58:48.496Z,33.43
2017-05-27T09:59:49.971Z,33.48
2017-05-27T10:00:51.458Z,34.23
2017-05-27T10:01:52.950Z,34.38
2017-05-27T10:02:54.434Z,34.04
2017-05-27T10:03:55.916Z,34.99
2017-05-27T10:04:57.392Z,34.44
2017-05-27T10:05:58.895Z,34.51
2017-05-27T10:07:00.377Z,34.00
2017-05-27T10:08:01.863Z,33.95
2017-05-27T10:09:03.350Z,33.97
2017-05-27T10:10:04.833Z,34.36
2017-05-27T10:11:06.319Z,34.35
2017-05-27T10:12:07.799Z,32.92
2017-05-27T10:13:09.284Z,32.96
2017-05-27T10:14:10.765Z,32.40
2017-05-27T10:15:12.259Z,30.98
2017-05-27T10:16:13.752Z,32.06
2017-05-27T10:17:15.233Z,32.03
2017-05-27T10:18:16.716Z,32.24
2017-05-27T10:19:18.201Z,31.49
2017-05-27T10:20:19.687Z,32.61
2017-05-27T10:21:21.169Z,33.79
2017-05-27T10:22:22.654Z,33.90
2017-05-27T10:23:24.139Z,33.52
2017-05-27T10:24:25.622Z,33.43
2017-05-27T10:25:27.111Z,33.65
2017-05-27T10:26:28.594Z,32.76
2017-05-27T10:27:30.080Z,32.91
2017-05-27T10:28:31.569Z,33.34
2017-05-27T10:29:33.050Z,33.55
2017-05-27T10:30:34.534Z,34.84
2017-05-27T10:31:36.022Z,36.08
2017-05-27T10:32:37.502Z,36.30
2017-05-27T10:33:38.982Z,35.97
2017-05-27T10:34:40.462Z,35.23
2017-05-27T10:35:41.944Z,35.15
2017-05-27T10:36:43.448Z,34.13
2017-05-27T10:37:44.933Z,35.37
2017-05-27T10:38:46.419Z,35.67
2017-05-27T10:39:47.920Z,35.33
2017-05-27T10:40:49.389Z,35.45
2017-05-27T10:41:50.866Z,36.42
2017-05-27T10:42:52.355Z,36.20
2017-05-27T10:43:53.836Z,34.38
2017-05-27T10:44:55.326Z,34.46
2017-05-27T10:45:56.807Z,34.02
2017-05-27T10:46:58.291Z,33.90
2017-05-27T10:47:59.775Z,34.09
2017-05-27T10:49:01.256Z,34.45
2017-05-27T10:50:02.741Z,34.50
2017-05-27T10:51:04.227Z,34.41
2017-05-27T10:52:05.716Z,33.67
2017-05-27T10:53:07.205Z,34.01
2017-05-27T10:54:08.687Z,34.66
2017-05-27T10:55:10.177Z,34.42
2017-05-27T10:56:11.670Z,34.34
2017-05-27T10:57:13.157Z,33.73
2017-05-27T10:58:14.638Z,32.11
2017-05-27T10:59:16.120Z,33.04
2017-05-27T11:00:17.608Z,34.38
2017-05-27T11:01:19.091Z,33.27
2017-05-27T11:02:20.573Z,33.94
2017-05-27T11:03:22.061Z,34.27
2017-05-27T11:04:23.545Z,34.20
2017-05-27T11:05:25.027Z,34.01
2017-05-27T11:06:26.511Z,34.58
2017-05-27T11:07:28.003Z,34.31
2017-05-27T11:08:29.488Z,35.32
2017-05-27T11:09:31.006Z,35.69
2017-05-27T11:10:32.481Z,35.62
2017-05-27T11:11:34.077Z,35.66
2017-05-27T11:12:35.558Z,35.97
2017-05-27T11:13:37.038Z,35.60
2017-05-27T11:14:38.526Z,35.91
2017-05-27T11:15:40.016Z,35.89
2017-05-27T11:16:41.499Z,34.92
2017-05-27T11:17:42.982Z,35.48
2017-05-27T11:18:44.465Z,34.74
2017-05-27T11:19:45.953Z,34.56
2017-05-27T11:20:47.452Z,34.35
2017-05-27T11:21:48.939Z,34.19
2017-05-27T11:22:50.422Z,35.25
2017-05-27T11:23:51.906Z,35.33
2017-05-27T11:24:53.384Z,35.40
2017-05-27T11:25:54.884Z,34.77
2017-05-27T11:26:56.415Z,35.01
2017-05-27T11:27:57.856Z,34.64
2017-05-27T11:28:59.338Z,34.24
2017-05-27T11:30:00.833Z,34.44
2017-05-27T11:31:02.331Z,34.86
2017-05-27T11:32:03.820Z,35.54
2017-05-27T11:33:05.301Z,36.36
2017-05-27T11:34:06.791Z,37.74
2017-05-27T11:35:08.275Z,36.36
2017-05-27T11:36:09.773Z,34.94
2017-05-27T11:37:11.277Z,33.37
2017-05-27T11:38:12.762Z,33.74
2017-05-27T11:39:14.250Z,33.52
2017-05-27T11:40:15.735Z,33.10
2017-05-27T11:41:17.220Z,33.30
2017-05-27T11:42:18.702Z,34.20
2017-05-27T11:43:20.192Z,34.89
2017-05-27T11:44:21.676Z,33.65
2017-05-27T11:45:23.158Z,33.42
2017-05-27T11:46:24.651Z,33.07
2017-05-27T11:47:26.138Z,34.31
2017-05-27T11:48:27.625Z,34.26
2017-05-27T11:49:29.142Z,34.02
2017-05-27T11:50:30.635Z,34.23
2017-05-27T11:51:32.124Z,34.61
2017-05-27T11:52:33.603Z,33.82
2017-05-27T11:53:35.085Z,34.35
2017-05-27T11:54:36.572Z,34.07
2017-05-27T11:55:38.075Z,34.53
2017-05-27T11:56:39.573Z,34.92
2017-05-27T11:57:41.066Z,35.07
2017-05-27T11:58:42.554Z,37.17
2017-05-27T11:59:44.039Z,36.42
2017-05-27T12:00:45.534Z,34.54
2017-05-27T12:01:47.035Z,34.58
2017-05-27T12:02:48.522Z,35.17
2017-05-27T12:03:50.010Z,35.15
2017-05-27T12:04:51.508Z,35.30
2017-05-27T12:05:53.007Z,34.48
2017-05-27T12:06:54.491Z,35.14
2017-05-27T12:07:55.989Z,35.17
2017-05-27T12:08:57.496Z,35.52
2017-05-27T12:09:58.987Z,35.21
2017-05-27T12:11:00.494Z,35.03
2017-05-27T12:12:01.995Z,34.91
2017-05-27T12:13:03.485Z,35.76
2017-05-27T12:14:04.974Z,36.01
2017-05-27T12:15:06.465Z,36.42
2017-05-27T12:16:07.984Z,35.92
2017-05-27T12:17:09.476Z,35.86
2017-05-27T12:18:10.971Z,35.84
2017-05-27T12:19:12.465Z,35.93
2017-05-27T12:20:13.951Z,35.99
2017-05-27T12:21:15.438Z,36.00
2017-05-27T12:22:16.927Z,35.92
2017-05-27T12:23:18.412Z,35.55
2017-05-27T12:24:19.898Z,35.13
2017-05-27T12:25:21.384Z,35.20
2017-05-27T12:26:22.871Z,34.14
2017-05-27T12:27:24.358Z,34.23
2017-05-27T12:28:25.839Z,34.41
2017-05-27T12:29:27.321Z,34.64
2017-05-27T12:30:28.807Z,35.60
2017-05-27T12:31:30.287Z,35.70
2017-05-27T12:32:31.771Z,35.91
2017-05-27T12:33:33.261Z,36.29
2017-05-27T12:34:34.746Z,34.79
2017-05-27T12:35:36.227Z,36.15
2017-05-27T12:36:37.709Z,36.45
2017-05-27T12:37:39.197Z,35.35
2017-05-27T12:38:40.702Z,35.52
2017-05-27T12:39:42.187Z,34.77
2017-05-27T12:40:43.667Z,35.93
2017-05-27T12:41:45.159Z,36.03
2017-05-27T12:42:46.642Z,35.50
2017-05-27T12:43:48.123Z,35.85
2017-05-27T12:44:49.610Z,35.85
2017-05-27T12:45:51.092Z,36.45
2017-05-27T12:46:52.578Z,36.33
2017-05-27T12:47:54.069Z,35.82
2017-05-27T12:48:55.575Z,36.23
2017-05-27T12:49:57.065Z,35.79
2017-05-27T12:50:58.561Z,36.58
2017-05-27T12:52:00.048Z,37.21
2017-05-27T12:53:01.531Z,36.90
2017-05-27T12:54:03.080Z,36.46
2017-05-27T12:55:04.522Z,36.67
2017-05-27T12:56:06.018Z,36.24
2017-05-27T12:57:07.503Z,36.72
2017-05-27T12:58:08.995Z,36.26
2017-05-27T12:59:10.477Z,35.50
2017-05-27T13:00:11.960Z,36.24
2017-05-27T13:01:13.461Z,36.08
2017-05-27T13:02:14.969Z,35.86
2017-05-27T13:03:16.546Z,35.02
2017-05-27T13:04:18.067Z,35.37
2017-05-27T13:05:19.550Z,34.53
2017-05-27T13:06:21.042Z,34.34
2017-05-27T13:07:22.562Z,34.58
2017-05-27T13:08:24.033Z,35.36
2017-05-27T13:09:25.606Z,35.14
2017-05-27T13:10:27.096Z,34.74
2017-05-27T13:11:28.582Z,34.39